sensor_id;sensor_type;location;lat;lon;timestamp;pressure;altitude;pressure_sealevel;temperature;humidity
18697;BME280;22617;43.690;27.956;2023-02-25T00:02:37;98245.72;;;4.91;87.34
18697;BME280;22617;43.690;27.956;2023-02-25T00:07:42;98235.41;;;4.92;87.52
18697;BME280;22617;43.690;27.956;2023-02-25T00:12:48;98235.41;;;4.89;87.46
18697;BME280;22617;43.690;27.956;2023-02-25T00:17:52;98216.47;;;4.95;87.28
18697;BME280;22617;43.690;27.956;2023-02-25T00:22:56;98215.66;;;5.00;87.34
18697;BME280;22617;43.690;27.956;2023-02-25T00:28:02;98205.31;;;4.96;87.57
18697;BME280;22617;43.690;27.956;2023-02-25T00:33:08;98198.41;;;4.96;87.78
18697;BME280;22617;43.690;27.956;2023-02-25T00:38:12;98197.53;;;4.91;87.58
18697;BME280;22617;43.690;27.956;2023-02-25T00:43:22;98188.00;;;4.78;87.41
18697;BME280;22617;43.690;27.956;2023-02-25T00:48:26;98191.47;;;4.81;87.44
18697;BME280;22617;43.690;27.956;2023-02-25T00:53:30;98185.38;;;4.69;87.46
18697;BME280;22617;43.690;27.956;2023-02-25T00:58:37;98184.47;;;4.64;86.98
18697;BME280;22617;43.690;27.956;2023-02-25T01:03:41;98169.06;;;4.76;86.94
18697;BME280;22617;43.690;27.956;2023-02-25T01:08:45;98165.63;;;4.80;87.27
18697;BME280;22617;43.690;27.956;2023-02-25T01:13:50;98156.22;;;4.90;86.97
18697;BME280;22617;43.690;27.956;2023-02-25T01:18:56;98152.75;;;4.86;86.73
18697;BME280;22617;43.690;27.956;2023-02-25T01:24:02;98138.13;;;4.82;87.33
18697;BME280;22617;43.690;27.956;2023-02-25T01:29:10;98133.00;;;4.88;87.87
18697;BME280;22617;43.690;27.956;2023-02-25T01:34:16;98133.88;;;4.93;87.43
18697;BME280;22617;43.690;27.956;2023-02-25T01:39:21;98126.97;;;4.88;86.77
18697;BME280;22617;43.690;27.956;2023-02-25T01:44:30;98124.41;;;4.95;87.18
18697;BME280;22617;43.690;27.956;2023-02-25T01:49:37;98121.81;;;4.92;87.14
18697;BME280;22617;43.690;27.956;2023-02-25T01:54:46;98120.94;;;4.89;86.91
18697;BME280;22617;43.690;27.956;2023-02-25T01:59:53;98119.19;;;4.81;86.38
18697;BME280;22617;43.690;27.956;2023-02-25T02:04:58;98102.88;;;4.92;86.65
18697;BME280;22617;43.690;27.956;2023-02-25T02:10:04;98110.56;;;4.78;86.35
18697;BME280;22617;43.690;27.956;2023-02-25T02:15:13;98109.72;;;4.82;86.54
18697;BME280;22617;43.690;27.956;2023-02-25T02:20:20;98107.19;;;4.88;86.73
18697;BME280;22617;43.690;27.956;2023-02-25T02:25:57;98103.78;;;5.01;86.71
18697;BME280;22617;43.690;27.956;2023-02-25T02:31:35;98096.94;;;5.17;86.94
18697;BME280;22617;43.690;27.956;2023-02-25T02:36:48;98103.03;;;5.48;87.36
18697;BME280;22617;43.690;27.956;2023-02-25T02:41:59;98082.38;;;5.78;87.12
18697;BME280;22617;43.690;27.956;2023-02-25T02:47:08;98072.06;;;6.02;87.72
18697;BME280;22617;43.690;27.956;2023-02-25T02:52:17;98062.53;;;6.20;86.62
18697;BME280;22617;43.690;27.956;2023-02-25T02:57:23;98059.13;;;6.07;85.89
18697;BME280;22617;43.690;27.956;2023-02-25T03:02:34;98057.41;;;5.92;86.09
18697;BME280;22617;43.690;27.956;2023-02-25T03:07:42;98046.22;;;5.87;86.24
18697;BME280;22617;43.690;27.956;2023-02-25T03:12:48;98058.25;;;5.96;86.99
18697;BME280;22617;43.690;27.956;2023-02-25T03:18:01;98058.28;;;5.93;86.33
18697;BME280;22617;43.690;27.956;2023-02-25T03:23:13;98055.69;;;5.94;86.50
18697;BME280;22617;43.690;27.956;2023-02-25T03:28:24;98053.94;;;5.72;86.32
18697;BME280;22617;43.690;27.956;2023-02-25T03:33:36;98047.91;;;5.70;86.07
18697;BME280;22617;43.690;27.956;2023-02-25T03:38:44;98060.81;;;5.71;86.72
18697;BME280;22617;43.690;27.956;2023-02-25T03:43:53;98055.66;;;5.67;86.35
18697;BME280;22617;43.690;27.956;2023-02-25T03:49:00;98061.69;;;5.64;86.94
18697;BME280;22617;43.690;27.956;2023-02-25T03:54:06;98057.38;;;5.68;86.96
18697;BME280;22617;43.690;27.956;2023-02-25T03:59:11;98058.25;;;5.82;87.64
18697;BME280;22617;43.690;27.956;2023-02-25T04:04:17;98052.22;;;5.77;87.12
18697;BME280;22617;43.690;27.956;2023-02-25T04:09:20;98047.03;;;5.76;87.04
18697;BME280;22617;43.690;27.956;2023-02-25T04:14:26;98037.56;;;5.56;87.20
18697;BME280;22617;43.690;27.956;2023-02-25T04:19:32;98030.66;;;5.52;87.60
18697;BME280;22617;43.690;27.956;2023-02-25T04:24:36;98021.19;;;5.71;87.72
18697;BME280;22617;43.690;27.956;2023-02-25T04:29:41;98014.34;;;5.61;88.02
18697;BME280;22617;43.690;27.956;2023-02-25T04:34:47;98025.50;;;5.67;87.58
18697;BME280;22617;43.690;27.956;2023-02-25T04:39:51;98017.75;;;5.78;87.88
18697;BME280;22617;43.690;27.956;2023-02-25T04:44:54;98019.50;;;5.88;87.63
18697;BME280;22617;43.690;27.956;2023-02-25T04:50:00;98019.50;;;5.94;87.13
18697;BME280;22617;43.690;27.956;2023-02-25T04:55:05;98026.34;;;6.10;87.50
18697;BME280;22617;43.690;27.956;2023-02-25T05:00:13;98034.94;;;6.32;86.76
18697;BME280;22617;43.690;27.956;2023-02-25T05:05:21;98038.34;;;6.34;86.04
18697;BME280;22617;43.690;27.956;2023-02-25T05:10:29;98040.91;;;6.49;86.50
18697;BME280;22617;43.690;27.956;2023-02-25T05:15:38;98036.53;;;6.62;85.88
18697;BME280;22617;43.690;27.956;2023-02-25T05:20:48;98031.34;;;6.62;85.21
18697;BME280;22617;43.690;27.956;2023-02-25T05:25:54;98030.44;;;6.72;85.59
18697;BME280;22617;43.690;27.956;2023-02-25T05:31:04;98033.75;;;7.03;85.25
18697;BME280;22617;43.690;27.956;2023-02-25T05:36:29;98024.16;;;7.19;84.31
18697;BME280;22617;43.690;27.956;2023-02-25T05:41:47;98019.91;;;7.09;83.94
18697;BME280;22617;43.690;27.956;2023-02-25T05:46:54;98019.03;;;7.10;83.88
18697;BME280;22617;43.690;27.956;2023-02-25T05:52:07;98016.44;;;7.11;84.05
18697;BME280;22617;43.690;27.956;2023-02-25T05:57:16;98019.81;;;7.24;84.32
18697;BME280;22617;43.690;27.956;2023-02-25T06:02:26;98029.16;;;7.46;84.44
18697;BME280;22617;43.690;27.956;2023-02-25T06:07:40;98029.88;;;7.66;83.76
18697;BME280;22617;43.690;27.956;2023-02-25T06:12:57;98033.94;;;7.95;83.62
18697;BME280;22617;43.690;27.956;2023-02-25T06:18:23;98024.94;;;8.32;83.32
18697;BME280;22617;43.690;27.956;2023-02-25T06:23:36;98030.69;;;8.58;82.05
18697;BME280;22617;43.690;27.956;2023-02-25T06:28:44;98019.84;;;8.93;81.52
18697;BME280;22617;43.690;27.956;2023-02-25T06:33:49;98006.63;;;9.10;81.53
18697;BME280;22617;43.690;27.956;2023-02-25T06:38:54;98013.00;;;9.47;81.49
18697;BME280;22617;43.690;27.956;2023-02-25T06:43:58;98019.28;;;9.88;80.32
18697;BME280;22617;43.690;27.956;2023-02-25T06:49:03;98018.91;;;10.07;78.90
18697;BME280;22617;43.690;27.956;2023-02-25T06:54:10;98018.47;;;10.33;77.92
18697;BME280;22617;43.690;27.956;2023-02-25T06:59:14;98009.59;;;10.43;77.76
18697;BME280;22617;43.690;27.956;2023-02-25T07:04:19;98007.22;;;10.74;75.84
18697;BME280;22617;43.690;27.956;2023-02-25T07:09:25;98010.94;;;11.04;75.42
18697;BME280;22617;43.690;27.956;2023-02-25T07:14:29;98004.94;;;11.39;75.18
18697;BME280;22617;43.690;27.956;2023-02-25T07:19:33;97998.34;;;11.60;73.06
18697;BME280;22617;43.690;27.956;2023-02-25T07:24:39;97993.06;;;11.98;72.52
18697;BME280;22617;43.690;27.956;2023-02-25T07:29:43;97989.69;;;12.27;71.02
18697;BME280;22617;43.690;27.956;2023-02-25T07:34:48;97994.03;;;12.57;69.95
18697;BME280;22617;43.690;27.956;2023-02-25T07:39:53;97981.88;;;12.86;69.51
18697;BME280;22617;43.690;27.956;2023-02-25T07:44:59;97977.97;;;13.30;68.81
18697;BME280;22617;43.690;27.956;2023-02-25T07:50:04;97985.09;;;13.25;66.50
18697;BME280;22617;43.690;27.956;2023-02-25T07:55:11;97980.16;;;13.70;66.62
18697;BME280;22617;43.690;27.956;2023-02-25T08:00:15;97964.94;;;14.06;65.30
18697;BME280;22617;43.690;27.956;2023-02-25T08:05:19;97973.09;;;14.23;65.26
18697;BME280;22617;43.690;27.956;2023-02-25T08:10:26;97972.53;;;14.63;63.08
18697;BME280;22617;43.690;27.956;2023-02-25T08:15:30;97962.28;;;15.03;61.49
18697;BME280;22617;43.690;27.956;2023-02-25T08:20:34;97958.59;;;15.07;61.28
18697;BME280;22617;43.690;27.956;2023-02-25T08:25:39;97949.47;;;15.17;60.57
18697;BME280;22617;43.690;27.956;2023-02-25T08:30:44;97934.06;;;15.53;59.19
18697;BME280;22617;43.690;27.956;2023-02-25T08:35:49;97935.78;;;15.75;59.76
18697;BME280;22617;43.690;27.956;2023-02-25T08:40:58;97912.41;;;15.89;58.66
18697;BME280;22617;43.690;27.956;2023-02-25T08:46:04;97893.59;;;16.18;58.19
18697;BME280;22617;43.690;27.956;2023-02-25T08:51:10;97890.25;;;16.53;58.25
18697;BME280;22617;43.690;27.956;2023-02-25T08:56:17;97889.13;;;16.20;58.12
18697;BME280;22617;43.690;27.956;2023-02-25T09:07:04;97879.78;;;17.08;56.48
18697;BME280;22617;43.690;27.956;2023-02-25T09:12:21;97870.94;;;16.73;56.32
18697;BME280;22617;43.690;27.956;2023-02-25T09:17:29;97863.34;;;17.03;57.29
18697;BME280;22617;43.690;27.956;2023-02-25T09:22:39;97867.06;;;16.99;54.93
18697;BME280;22617;43.690;27.956;2023-02-25T09:28:02;97869.41;;;17.05;55.56
18697;BME280;22617;43.690;27.956;2023-02-25T09:33:09;97862.03;;;16.76;55.85
18697;BME280;22617;43.690;27.956;2023-02-25T09:38:15;97860.72;;;17.39;55.07
18697;BME280;22617;43.690;27.956;2023-02-25T09:43:24;97850.41;;;17.34;54.44
18697;BME280;22617;43.690;27.956;2023-02-25T09:48:43;97834.53;;;17.53;53.81
18697;BME280;22617;43.690;27.956;2023-02-25T09:54:03;97828.41;;;17.70;54.20
18697;BME280;22617;43.690;27.956;2023-02-25T09:59:19;97839.56;;;17.75;54.84
18697;BME280;22617;43.690;27.956;2023-02-25T10:04:31;97807.25;;;17.89;52.89
18697;BME280;22617;43.690;27.956;2023-02-25T10:09:47;97805.31;;;17.75;53.58
18697;BME280;22617;43.690;27.956;2023-02-25T10:15:34;97783.66;;;18.18;53.00
18697;BME280;22617;43.690;27.956;2023-02-25T10:21:04;97777.03;;;18.43;52.12
18697;BME280;22617;43.690;27.956;2023-02-25T10:26:19;97771.81;;;18.74;50.79
18697;BME280;22617;43.690;27.956;2023-02-25T10:31:29;97748.97;;;18.89;50.50
18697;BME280;22617;43.690;27.956;2023-02-25T10:36:36;97734.69;;;18.46;49.60
18697;BME280;22617;43.690;27.956;2023-02-25T10:41:44;97722.69;;;19.01;50.57
18697;BME280;22617;43.690;27.956;2023-02-25T10:46:53;97716.34;;;18.43;50.11
18697;BME280;22617;43.690;27.956;2023-02-25T10:52:00;97716.25;;;18.76;50.23
18697;BME280;22617;43.690;27.956;2023-02-25T10:57:07;97707.25;;;18.80;49.94
18697;BME280;22617;43.690;27.956;2023-02-25T11:02:24;97702.28;;;18.89;49.57
18697;BME280;22617;43.690;27.956;2023-02-25T11:07:33;97696.31;;;18.56;49.66
18697;BME280;22617;43.690;27.956;2023-02-25T11:12:40;97686.41;;;18.75;50.46
18697;BME280;22617;43.690;27.956;2023-02-25T11:17:46;97671.69;;;19.29;49.06
18697;BME280;22617;43.690;27.956;2023-02-25T11:22:51;97676.34;;;18.96;49.39
18697;BME280;22617;43.690;27.956;2023-02-25T11:27:59;97672.41;;;18.89;51.93
18697;BME280;22617;43.690;27.956;2023-02-25T11:33:13;97686.28;;;19.06;48.73
18697;BME280;22617;43.690;27.956;2023-02-25T11:38:25;97678.25;;;18.64;50.00
18697;BME280;22617;43.690;27.956;2023-02-25T11:43:39;97684.94;;;18.99;49.56
18697;BME280;22617;43.690;27.956;2023-02-25T11:48:49;97679.81;;;18.82;50.22
18697;BME280;22617;43.690;27.956;2023-02-25T11:54:17;97674.44;;;18.84;47.60
18697;BME280;22617;43.690;27.956;2023-02-25T11:59:36;97655.59;;;18.60;47.36
18697;BME280;22617;43.690;27.956;2023-02-25T12:05:39;97659.88;;;19.06;48.91
18697;BME280;22617;43.690;27.956;2023-02-25T12:17:03;97653.47;;;19.10;46.64
18697;BME280;22617;43.690;27.956;2023-02-25T12:28:22;97656.47;;;19.48;46.11
18697;BME280;22617;43.690;27.956;2023-02-25T12:34:01;97651.25;;;19.33;47.49
18697;BME280;22617;43.690;27.956;2023-02-25T12:45:27;97642.06;;;18.80;47.06
18697;BME280;22617;43.690;27.956;2023-02-25T12:51:17;97633.75;;;18.26;48.60
18697;BME280;22617;43.690;27.956;2023-02-25T12:56:45;97625.94;;;18.70;48.95
18697;BME280;22617;43.690;27.956;2023-02-25T13:02:11;97644.53;;;18.53;47.49
18697;BME280;22617;43.690;27.956;2023-02-25T13:13:18;97646.19;;;17.93;49.25
18697;BME280;22617;43.690;27.956;2023-02-25T13:18:35;97654.41;;;18.65;47.53
18697;BME280;22617;43.690;27.956;2023-02-25T13:23:54;97629.47;;;18.85;47.71
18697;BME280;22617;43.690;27.956;2023-02-25T13:29:17;97626.47;;;18.61;47.08
18697;BME280;22617;43.690;27.956;2023-02-25T13:34:37;97629.16;;;18.14;47.64
18697;BME280;22617;43.690;27.956;2023-02-25T13:39:49;97635.09;;;18.18;48.01
18697;BME280;22617;43.690;27.956;2023-02-25T13:45:23;97614.38;;;17.96;49.04
18697;BME280;22617;43.690;27.956;2023-02-25T13:50:51;97615.91;;;17.69;49.28
18697;BME280;22617;43.690;27.956;2023-02-25T13:56:21;97617.81;;;17.50;49.55
18697;BME280;22617;43.690;27.956;2023-02-25T14:01:37;97609.38;;;17.43;50.90
18697;BME280;22617;43.690;27.956;2023-02-25T14:07:03;97604.00;;;17.29;52.52
18697;BME280;22617;43.690;27.956;2023-02-25T14:12:20;97609.44;;;17.41;52.17
18697;BME280;22617;43.690;27.956;2023-02-25T14:17:42;97594.50;;;17.26;52.62
18697;BME280;22617;43.690;27.956;2023-02-25T14:22:54;97593.72;;;17.24;52.90
18697;BME280;22617;43.690;27.956;2023-02-25T14:28:06;97596.06;;;17.13;53.38
18697;BME280;22617;43.690;27.956;2023-02-25T14:33:41;97608.41;;;16.95;53.67
18697;BME280;22617;43.690;27.956;2023-02-25T14:39:11;97606.56;;;16.97;53.81
18697;BME280;22617;43.690;27.956;2023-02-25T14:44:25;97622.50;;;16.94;53.78
18697;BME280;22617;43.690;27.956;2023-02-25T14:49:34;97606.56;;;16.80;54.35
18697;BME280;22617;43.690;27.956;2023-02-25T15:00:50;97596.44;;;16.73;54.71
18697;BME280;22617;43.690;27.956;2023-02-25T15:06:10;97593.94;;;16.70;54.67
18697;BME280;22617;43.690;27.956;2023-02-25T15:11:37;97588.56;;;16.73;54.72
18697;BME280;22617;43.690;27.956;2023-02-25T15:22:25;97596.63;;;16.51;55.40
18697;BME280;22617;43.690;27.956;2023-02-25T15:27:44;97580.16;;;16.47;55.62
18697;BME280;22617;43.690;27.956;2023-02-25T15:32:57;97592.84;;;16.39;55.74
18697;BME280;22617;43.690;27.956;2023-02-25T15:38:18;97589.09;;;16.26;56.64
18697;BME280;22617;43.690;27.956;2023-02-25T15:43:51;97601.63;;;16.21;56.99
18697;BME280;22617;43.690;27.956;2023-02-25T15:49:33;97622.19;;;16.13;57.75
18697;BME280;22617;43.690;27.956;2023-02-25T15:55:20;97627.72;;;16.07;58.18
18697;BME280;22617;43.690;27.956;2023-02-25T16:00:51;97620.28;;;15.98;58.62
18697;BME280;22617;43.690;27.956;2023-02-25T16:05:59;97627.41;;;15.96;58.86
18697;BME280;22617;43.690;27.956;2023-02-25T16:11:05;97620.69;;;15.72;59.34
18697;BME280;22617;43.690;27.956;2023-02-25T16:16:19;97630.56;;;15.66;59.53
18697;BME280;22617;43.690;27.956;2023-02-25T16:21:26;97643.25;;;15.57;59.74
18697;BME280;22617;43.690;27.956;2023-02-25T16:26:41;97654.06;;;15.49;60.00
18697;BME280;22617;43.690;27.956;2023-02-25T16:31:51;97656.59;;;15.52;59.90
18697;BME280;22617;43.690;27.956;2023-02-25T16:37:05;97665.78;;;15.42;60.41
18697;BME280;22617;43.690;27.956;2023-02-25T16:42:15;97663.84;;;15.46;60.24
18697;BME280;22617;43.690;27.956;2023-02-25T16:47:25;97671.50;;;15.32;60.82
18697;BME280;22617;43.690;27.956;2023-02-25T16:52:31;97675.63;;;15.37;60.59
18697;BME280;22617;43.690;27.956;2023-02-25T16:57:36;97681.72;;;15.38;60.53
18697;BME280;22617;43.690;27.956;2023-02-25T17:02:45;97688.91;;;15.34;60.61
18697;BME280;22617;43.690;27.956;2023-02-25T17:07:53;97683.72;;;15.12;61.11
18697;BME280;22617;43.690;27.956;2023-02-25T17:12:59;97683.66;;;15.14;60.82
18697;BME280;22617;43.690;27.956;2023-02-25T17:18:10;97689.13;;;15.09;60.66
18697;BME280;22617;43.690;27.956;2023-02-25T17:23:14;97692.59;;;14.90;61.29
18697;BME280;22617;43.690;27.956;2023-02-25T17:28:21;97686.16;;;14.55;61.98
18697;BME280;22617;43.690;27.956;2023-02-25T17:33:27;97689.38;;;14.41;62.27
18697;BME280;22617;43.690;27.956;2023-02-25T17:38:34;97693.34;;;14.06;63.56
18697;BME280;22617;43.690;27.956;2023-02-25T17:43:40;97691.22;;;14.16;64.04
18697;BME280;22617;43.690;27.956;2023-02-25T17:48:50;97696.63;;;14.11;64.38
18697;BME280;22617;43.690;27.956;2023-02-25T17:53:56;97695.72;;;13.90;64.43
18697;BME280;22617;43.690;27.956;2023-02-25T17:59:03;97694.91;;;13.88;64.18
18697;BME280;22617;43.690;27.956;2023-02-25T18:04:20;97703.69;;;13.64;64.67
18697;BME280;22617;43.690;27.956;2023-02-25T18:09:30;97705.75;;;13.79;63.84
18697;BME280;22617;43.690;27.956;2023-02-25T18:14:40;97709.53;;;13.94;63.21
18697;BME280;22617;43.690;27.956;2023-02-25T18:19:48;97703.94;;;14.25;62.10
18697;BME280;22617;43.690;27.956;2023-02-25T18:24:52;97712.84;;;14.21;61.95
18697;BME280;22617;43.690;27.956;2023-02-25T18:35:07;97724.53;;;13.90;62.43
18697;BME280;22617;43.690;27.956;2023-02-25T18:40:15;97718.47;;;13.88;62.57
18697;BME280;22617;43.690;27.956;2023-02-25T18:45:21;97722.22;;;13.81;62.50
18697;BME280;22617;43.690;27.956;2023-02-25T18:50:28;97733.84;;;13.74;62.91
18697;BME280;22617;43.690;27.956;2023-02-25T18:55:32;97729.06;;;13.62;63.04
18697;BME280;22617;43.690;27.956;2023-02-25T19:00:36;97735.28;;;13.60;63.39
18697;BME280;22617;43.690;27.956;2023-02-25T19:05:41;97730.53;;;13.46;63.63
18697;BME280;22617;43.690;27.956;2023-02-25T19:10:45;97722.91;;;13.40;63.97
18697;BME280;22617;43.690;27.956;2023-02-25T19:15:48;97732.09;;;13.27;64.24
18697;BME280;22617;43.690;27.956;2023-02-25T19:20:54;97725.97;;;13.28;64.17
18697;BME280;22617;43.690;27.956;2023-02-25T19:25:59;97733.91;;;13.25;64.48
18697;BME280;22617;43.690;27.956;2023-02-25T19:31:04;97729.13;;;13.13;64.81
18697;BME280;22617;43.690;27.956;2023-02-25T19:36:10;97738.72;;;13.12;64.78
18697;BME280;22617;43.690;27.956;2023-02-25T19:41:14;97745.19;;;13.00;65.37
18697;BME280;22617;43.690;27.956;2023-02-25T19:46:17;97746.34;;;12.92;65.45
18697;BME280;22617;43.690;27.956;2023-02-25T19:51:22;97746.00;;;12.76;66.13
18697;BME280;22617;43.690;27.956;2023-02-25T19:56:26;97750.47;;;12.73;66.09
18697;BME280;22617;43.690;27.956;2023-02-25T20:01:29;97752.34;;;12.69;66.35
18697;BME280;22617;43.690;27.956;2023-02-25T20:06:36;97747.16;;;12.67;66.58
18697;BME280;22617;43.690;27.956;2023-02-25T20:11:39;97759.22;;;12.72;66.51
18697;BME280;22617;43.690;27.956;2023-02-25T20:16:44;97748.41;;;12.82;66.44
18697;BME280;22617;43.690;27.956;2023-02-25T20:21:49;97757.56;;;12.69;66.82
18697;BME280;22617;43.690;27.956;2023-02-25T20:26:54;97752.50;;;12.64;66.90
18697;BME280;22617;43.690;27.956;2023-02-25T20:31:57;97740.47;;;12.59;67.21
18697;BME280;22617;43.690;27.956;2023-02-25T20:37:05;97739.28;;;12.69;66.81
18697;BME280;22617;43.690;27.956;2023-02-25T20:42:15;97738.41;;;12.68;66.96
18697;BME280;22617;43.690;27.956;2023-02-25T20:47:22;97752.31;;;12.71;66.86
18697;BME280;22617;43.690;27.956;2023-02-25T20:52:28;97749.31;;;12.81;66.73
18697;BME280;22617;43.690;27.956;2023-02-25T20:57:32;97754.53;;;12.81;66.81
18697;BME280;22617;43.690;27.956;2023-02-25T21:02:36;97752.00;;;12.80;66.75
18697;BME280;22617;43.690;27.956;2023-02-25T21:07:41;97758.34;;;12.71;67.06
18697;BME280;22617;43.690;27.956;2023-02-25T21:12:44;97771.97;;;12.54;67.54
18697;BME280;22617;43.690;27.956;2023-02-25T21:17:47;97762.72;;;12.44;67.82
18697;BME280;22617;43.690;27.956;2023-02-25T21:22:52;97768.75;;;12.46;67.84
18697;BME280;22617;43.690;27.956;2023-02-25T21:27:56;97767.91;;;12.46;67.77
18697;BME280;22617;43.690;27.956;2023-02-25T21:33:00;97760.53;;;12.31;68.19
18697;BME280;22617;43.690;27.956;2023-02-25T21:38:05;97763.38;;;12.23;68.60
18697;BME280;22617;43.690;27.956;2023-02-25T21:43:08;97759.94;;;12.22;68.85
18697;BME280;22617;43.690;27.956;2023-02-25T21:48:12;97759.81;;;12.26;68.77
18697;BME280;22617;43.690;27.956;2023-02-25T21:53:17;97776.75;;;12.42;68.62
18697;BME280;22617;43.690;27.956;2023-02-25T21:58:22;97767.91;;;12.46;68.56
18697;BME280;22617;43.690;27.956;2023-02-25T22:03:26;97755.69;;;12.46;68.41
18697;BME280;22617;43.690;27.956;2023-02-25T22:08:31;97768.09;;;12.40;68.92
18697;BME280;22617;43.690;27.956;2023-02-25T22:13:34;97767.78;;;12.22;69.24
18697;BME280;22617;43.690;27.956;2023-02-25T22:18:38;97766.66;;;12.30;69.05
18697;BME280;22617;43.690;27.956;2023-02-25T22:23:44;97754.63;;;12.24;69.49
18697;BME280;22617;43.690;27.956;2023-02-25T22:28:52;97756.06;;;12.34;69.32
18697;BME280;22617;43.690;27.956;2023-02-25T22:33:57;97766.38;;;12.39;69.37
18697;BME280;22617;43.690;27.956;2023-02-25T22:39:05;97760.53;;;12.31;69.54
18697;BME280;22617;43.690;27.956;2023-02-25T22:44:08;97764.34;;;12.20;69.89
18697;BME280;22617;43.690;27.956;2023-02-25T22:49:12;97760.00;;;12.19;70.00
18697;BME280;22617;43.690;27.956;2023-02-25T22:54:18;97760.25;;;12.12;70.24
18697;BME280;22617;43.690;27.956;2023-02-25T22:59:22;97762.69;;;12.18;70.44
18697;BME280;22617;43.690;27.956;2023-02-25T23:04:25;97755.63;;;12.20;70.19
18697;BME280;22617;43.690;27.956;2023-02-25T23:09:30;97752.34;;;12.13;70.65
18697;BME280;22617;43.690;27.956;2023-02-25T23:14:34;97747.84;;;12.18;70.76
18697;BME280;22617;43.690;27.956;2023-02-25T23:19:38;97752.13;;;12.21;70.89
18697;BME280;22617;43.690;27.956;2023-02-25T23:24:43;97747.75;;;12.21;70.97
18697;BME280;22617;43.690;27.956;2023-02-25T23:29:47;97750.31;;;12.23;71.08
18697;BME280;22617;43.690;27.956;2023-02-25T23:34:50;97749.38;;;12.26;71.07
18697;BME280;22617;43.690;27.956;2023-02-25T23:39:55;97744.25;;;12.22;71.15
18697;BME280;22617;43.690;27.956;2023-02-25T23:44:58;97742.34;;;12.28;71.24
18697;BME280;22617;43.690;27.956;2023-02-25T23:50:04;97741.34;;;12.32;71.22
18697;BME280;22617;43.690;27.956;2023-02-25T23:55:11;97745.47;;;12.39;70.92
